Time;durP1;ratioP1;P1;durP2;ratioP2;P2;SDS_P1;SDS_P2;PMS_P1;PMS_P2;Temp;Humidity;BMP_temperature;BMP_pressure;BME280_temperature;BME280_humidity;BME280_pressure;Samples;Min_cycle;Max_cycle;Signal;HPM_P1;HPM_P2
2020/12/10 00:01:12;;;;;;;;;;;3.80;74.20;;;;;;5007628;28;20176;-45
2020/12/10 00:03:39;;;;;;;;;;;3.80;73.90;;;;;;5003127;28;20915;-45
2020/12/10 00:06:07;;;;;;;;;;;3.80;73.80;;;;;;5008072;28;19935;-45
2020/12/10 00:08:33;;;;;;;;;;;3.80;73.50;;;;;;5010634;28;19929;-46
2020/12/10 00:10:59;;;;;;;;;;;3.80;73.60;;;;;;5008843;28;19938;-46
2020/12/10 00:13:25;;;;;;;;;;;3.70;73.60;;;;;;5007979;28;19932;-43
2020/12/10 00:15:51;;;;;;;;;;;3.70;73.60;;;;;;5011304;28;19936;-46
2020/12/10 00:18:18;;;;;;;;;;;3.80;73.50;;;;;;5013041;28;19925;-47
2020/12/10 00:20:46;;;;;;;;;;;3.80;73.50;;;;;;5009027;28;19933;-46
2020/12/10 00:23:13;;;;;;;;;;;3.80;73.30;;;;;;4996130;28;19935;-43
2020/12/10 00:25:41;;;;;;;;;;;3.70;73.60;;;;;;5011354;28;20376;-47
2020/12/10 00:28:07;;;;;;;;;;;3.70;73.60;;;;;;5009297;28;20281;-43
2020/12/10 00:30:33;;;;;;;;;;;3.60;73.60;;;;;;5007995;28;20304;-43
2020/12/10 00:33:00;;;;;;;;;;;3.70;73.50;;;;;;5007585;28;19932;-46
2020/12/10 00:35:27;;;;;;;;;;;3.60;73.40;;;;;;5006963;28;19976;-46
2020/12/10 00:37:53;;;;;;;;;;;3.60;73.60;;;;;;5009399;28;19925;-45
2020/12/10 00:40:19;;;;;;;;;;;3.60;73.50;;;;;;5003992;28;22300;-44
2020/12/10 00:42:46;;;;;;;;;;;3.60;73.50;;;;;;5009383;28;19951;-45
2020/12/10 00:45:12;;;;;;;;;;;3.60;73.40;;;;;;5008150;28;19957;-45
2020/12/10 00:47:38;;;;;;;;;;;3.60;73.30;;;;;;5010260;28;20425;-46
2020/12/10 00:50:05;;;;;;;;;;;3.60;73.10;;;;;;5008084;28;19929;-46
2020/12/10 00:52:31;;;;;;;;;;;3.60;73.00;;;;;;5010048;28;20400;-44
2020/12/10 00:54:58;;;;;;;;;;;3.60;73.20;;;;;;5010182;28;20388;-44
2020/12/10 00:57:24;;;;;;;;;;;3.60;73.20;;;;;;5007957;28;19933;-46
2020/12/10 00:59:50;;;;;;;;;;;3.60;73.30;;;;;;5005019;28;19925;-46
2020/12/10 01:02:16;;;;;;;;;;;3.70;73.40;;;;;;5007823;28;19935;-45
2020/12/10 01:04:43;;;;;;;;;;;3.70;73.50;;;;;;5009125;28;19925;-44
2020/12/10 01:07:09;;;;;;;;;;;3.60;73.60;;;;;;5007946;28;19926;-43
2020/12/10 01:09:35;;;;;;;;;;;3.60;73.60;;;;;;5005559;28;19933;-44
2020/12/10 01:12:03;;;;;;;;;;;3.60;73.60;;;;;;5011224;28;19933;-46
2020/12/10 01:14:32;;;;;;;;;;;3.60;73.40;;;;;;5008237;28;19963;-46
2020/12/10 01:16:59;;;;;;;;;;;3.60;73.60;;;;;;5009871;28;19929;-45
2020/12/10 01:19:25;;;;;;;;;;;3.60;73.70;;;;;;5001216;28;19931;-46
2020/12/10 01:21:52;;;;;;;;;;;3.60;73.70;;;;;;5009780;28;19929;-46
2020/12/10 01:24:18;;;;;;;;;;;3.60;73.90;;;;;;5007965;28;19935;-47
2020/12/10 01:26:44;;;;;;;;;;;3.60;73.90;;;;;;4995586;28;20845;-47
2020/12/10 01:29:10;;;;;;;;;;;3.60;74.10;;;;;;5009436;28;19925;-44
2020/12/10 01:31:36;;;;;;;;;;;3.60;74.20;;;;;;5005877;28;19925;-46
2020/12/10 01:34:03;;;;;;;;;;;3.50;74.00;;;;;;5004992;28;19929;-44
2020/12/10 01:36:29;;;;;;;;;;;3.50;74.50;;;;;;5007072;28;19925;-45
2020/12/10 01:38:56;;;;;;;;;;;3.50;74.60;;;;;;5010227;28;19925;-43
2020/12/10 01:41:29;;;;;;;;;;;3.50;74.90;;;;;;5009904;28;22065;-46
2020/12/10 01:44:12;;;;;;;;;;;3.50;75.00;;;;;;5009258;28;20114;-43
2020/12/10 01:46:39;;;;;;;;;;;3.50;74.90;;;;;;5007056;28;20448;-46
2020/12/10 01:49:08;;;;;;;;;;;3.50;74.60;;;;;;5006138;28;19936;-44
2020/12/10 01:51:35;;;;;;;;;;;3.60;74.50;;;;;;5021800;28;19933;-44
2020/12/10 01:54:01;;;;;;;;;;;3.50;74.60;;;;;;5008553;28;20012;-45
2020/12/10 01:56:28;;;;;;;;;;;3.60;74.80;;;;;;5009293;28;19929;-47
2020/12/10 01:58:54;;;;;;;;;;;3.60;74.70;;;;;;5008070;28;19929;-47
2020/12/10 02:01:21;;;;;;;;;;;3.70;74.40;;;;;;5006846;28;19983;-45
2020/12/10 02:03:47;;;;;;;;;;;3.70;74.10;;;;;;5006287;28;19936;-44
2020/12/10 02:06:13;;;;;;;;;;;3.70;73.90;;;;;;5009151;28;19929;-47
2020/12/10 02:08:42;;;;;;;;;;;3.70;73.70;;;;;;5006263;28;20395;-47
2020/12/10 02:11:10;;;;;;;;;;;3.70;73.70;;;;;;5001673;28;20368;-44
2020/12/10 02:13:38;;;;;;;;;;;3.70;74.00;;;;;;5005383;28;19929;-46
2020/12/10 02:16:04;;;;;;;;;;;3.60;74.10;;;;;;5006620;28;19933;-45
2020/12/10 02:18:31;;;;;;;;;;;3.60;74.50;;;;;;5007702;28;19929;-45
2020/12/10 02:20:57;;;;;;;;;;;3.60;74.60;;;;;;5007311;28;19948;-47
2020/12/10 02:23:23;;;;;;;;;;;3.60;74.10;;;;;;5003436;28;20301;-43
2020/12/10 02:25:49;;;;;;;;;;;3.60;74.20;;;;;;5007569;28;19929;-41
2020/12/10 02:28:16;;;;;;;;;;;3.60;74.00;;;;;;5009123;28;19932;-45
2020/12/10 02:30:43;;;;;;;;;;;3.60;73.70;;;;;;5004926;28;19925;-46
2020/12/10 02:33:09;;;;;;;;;;;3.70;73.50;;;;;;5005498;28;19926;-46
2020/12/10 02:35:36;;;;;;;;;;;3.70;73.50;;;;;;5007446;28;19936;-46
2020/12/10 02:38:04;;;;;;;;;;;3.70;73.40;;;;;;5004993;28;19936;-45
2020/12/10 02:40:34;;;;;;;;;;;3.60;73.40;;;;;;5015912;28;19925;-47
2020/12/10 02:43:00;;;;;;;;;;;3.60;73.70;;;;;;5006892;28;19932;-45
2020/12/10 02:45:27;;;;;;;;;;;3.60;73.80;;;;;;5006870;28;20365;-45
2020/12/10 02:47:54;;;;;;;;;;;3.70;73.90;;;;;;5007667;28;19924;-43
2020/12/10 02:50:21;;;;;;;;;;;3.70;73.70;;;;;;5005687;28;20371;-46
2020/12/10 02:52:47;;;;;;;;;;;3.70;73.40;;;;;;5002895;28;19933;-46
2020/12/10 02:55:14;;;;;;;;;;;3.70;73.50;;;;;;5004988;28;20390;-43
2020/12/10 02:57:40;;;;;;;;;;;3.70;73.70;;;;;;5004582;28;19929;-46
2020/12/10 03:00:07;;;;;;;;;;;3.70;73.90;;;;;;5004608;28;19925;-44
2020/12/10 03:02:34;;;;;;;;;;;3.80;73.60;;;;;;5004964;28;19933;-47
2020/12/10 03:05:00;;;;;;;;;;;3.70;73.50;;;;;;5005305;28;19932;-44
2020/12/10 03:07:26;;;;;;;;;;;3.70;73.60;;;;;;5006793;28;19941;-45
2020/12/10 03:09:53;;;;;;;;;;;3.70;73.60;;;;;;5006935;28;20277;-44
2020/12/10 03:12:19;;;;;;;;;;;3.70;73.60;;;;;;5006334;28;19933;-42
2020/12/10 03:14:45;;;;;;;;;;;3.70;73.40;;;;;;5006838;28;19925;-46
2020/12/10 03:17:11;;;;;;;;;;;3.70;73.30;;;;;;4989914;28;19930;-47
2020/12/10 03:19:37;;;;;;;;;;;3.70;73.20;;;;;;5004524;28;19990;-45
2020/12/10 03:22:03;;;;;;;;;;;3.70;73.20;;;;;;5005278;28;19929;-46
2020/12/10 03:24:30;;;;;;;;;;;3.70;72.80;;;;;;5005745;28;19930;-47
2020/12/10 03:26:56;;;;;;;;;;;3.80;72.90;;;;;;5006343;28;19987;-47
2020/12/10 03:29:22;;;;;;;;;;;3.80;72.90;;;;;;5003771;28;20060;-48
2020/12/10 03:31:48;;;;;;;;;;;3.80;73.20;;;;;;4995985;28;19932;-47
2020/12/10 03:34:17;;;;;;;;;;;3.80;73.20;;;;;;5006994;28;19932;-44
2020/12/10 03:36:47;;;;;;;;;;;3.80;72.70;;;;;;5005014;28;20508;-46
2020/12/10 03:39:14;;;;;;;;;;;3.80;72.80;;;;;;5007135;28;19936;-47
2020/12/10 03:41:40;;;;;;;;;;;3.70;72.90;;;;;;5022733;28;19933;-47
2020/12/10 03:44:08;;;;;;;;;;;3.70;72.80;;;;;;5011903;28;19936;-44
2020/12/10 03:46:34;;;;;;;;;;;3.70;73.20;;;;;;5012001;28;19926;-46
2020/12/10 03:49:00;;;;;;;;;;;3.70;73.00;;;;;;5010442;28;20388;-47
2020/12/10 03:51:26;;;;;;;;;;;3.70;73.10;;;;;;5010511;28;19934;-45
2020/12/10 03:53:53;;;;;;;;;;;3.70;72.70;;;;;;5008883;28;20042;-45
2020/12/10 03:56:19;;;;;;;;;;;3.70;72.70;;;;;;5012639;28;19926;-45
2020/12/10 03:58:46;;;;;;;;;;;3.70;72.50;;;;;;5011141;28;19925;-44
2020/12/10 04:01:12;;;;;;;;;;;3.70;72.40;;;;;;5008997;28;19953;-43
2020/12/10 04:03:38;;;;;;;;;;;3.70;72.30;;;;;;5009410;28;19932;-43
2020/12/10 04:06:04;;;;;;;;;;;3.80;72.30;;;;;;5024157;28;19940;-47
2020/12/10 04:08:30;;;;;;;;;;;3.80;72.50;;;;;;5008325;28;20294;-47
2020/12/10 04:10:57;;;;;;;;;;;3.80;72.70;;;;;;5006065;28;19932;-47
2020/12/10 04:13:23;;;;;;;;;;;3.80;72.40;;;;;;5009152;28;19932;-46
2020/12/10 04:15:50;;;;;;;;;;;3.80;72.40;;;;;;5008909;28;20433;-45
2020/12/10 04:18:16;;;;;;;;;;;3.80;72.80;;;;;;5010621;28;19940;-45
2020/12/10 04:20:42;;;;;;;;;;;3.80;73.10;;;;;;5009922;28;19929;-46
2020/12/10 04:23:09;;;;;;;;;;;3.80;73.00;;;;;;5011216;28;19929;-43
2020/12/10 04:25:35;;;;;;;;;;;3.80;72.80;;;;;;5009805;28;19925;-46
2020/12/10 04:28:01;;;;;;;;;;;3.80;72.70;;;;;;5006092;28;19929;-45
2020/12/10 04:30:27;;;;;;;;;;;3.80;72.70;;;;;;5007858;28;19984;-44
2020/12/10 04:32:54;;;;;;;;;;;3.90;72.70;;;;;;5010760;28;19932;-47
2020/12/10 04:35:21;;;;;;;;;;;3.90;72.50;;;;;;4991861;28;19925;-43
2020/12/10 04:37:47;;;;;;;;;;;3.80;72.40;;;;;;5004681;28;19948;-47
2020/12/10 04:40:13;;;;;;;;;;;3.80;72.50;;;;;;5006441;28;19929;-46
2020/12/10 04:42:42;;;;;;;;;;;3.90;72.60;;;;;;5013453;28;19925;-47
2020/12/10 04:45:08;;;;;;;;;;;3.90;72.70;;;;;;5009188;28;19929;-46
2020/12/10 04:47:36;;;;;;;;;;;3.90;73.00;;;;;;5009681;28;20570;-47
2020/12/10 04:50:04;;;;;;;;;;;3.90;73.10;;;;;;5010085;28;19925;-47
2020/12/10 04:52:35;;;;;;;;;;;3.90;72.90;;;;;;5010035;28;20333;-45
2020/12/10 04:55:01;;;;;;;;;;;3.90;72.70;;;;;;4991076;28;19932;-44
2020/12/10 04:57:28;;;;;;;;;;;3.90;72.50;;;;;;5010183;28;19933;-45
2020/12/10 04:59:55;;;;;;;;;;;3.90;72.40;;;;;;5006515;28;19933;-47
2020/12/10 05:02:21;;;;;;;;;;;3.90;72.40;;;;;;5005793;28;19925;-46
2020/12/10 05:04:47;;;;;;;;;;;3.90;72.40;;;;;;5007151;28;20140;-44
2020/12/10 05:07:13;;;;;;;;;;;3.90;72.40;;;;;;5009051;28;19940;-45
2020/12/10 05:09:54;;;;;;;;;;;3.90;72.60;;;;;;5007126;28;20401;-45
2020/12/10 05:12:20;;;;;;;;;;;3.90;72.80;;;;;;5009390;28;19936;-45
2020/12/10 05:14:47;;;;;;;;;;;3.90;73.10;;;;;;5009468;28;19955;-45
2020/12/10 05:17:15;;;;;;;;;;;3.90;73.00;;;;;;5009351;28;19925;-45
2020/12/10 05:19:41;;;;;;;;;;;3.90;72.90;;;;;;5009892;28;19926;-44
2020/12/10 05:22:09;;;;;;;;;;;3.90;73.00;;;;;;5008908;28;19925;-47
2020/12/10 05:24:35;;;;;;;;;;;3.90;72.60;;;;;;5008380;28;19932;-47
2020/12/10 05:27:20;;;;;;;;;;;3.90;72.40;;;;;;5008302;28;19925;-44
2020/12/10 05:29:47;;;;;;;;;;;3.90;72.20;;;;;;5022186;28;19991;-46
2020/12/10 05:32:30;;;;;;;;;;;3.90;72.40;;;;;;5007254;28;19955;-47
2020/12/10 05:34:57;;;;;;;;;;;3.90;72.70;;;;;;4997963;28;20015;-47
2020/12/10 05:37:27;;;;;;;;;;;3.90;72.50;;;;;;4989524;28;19933;-48
2020/12/10 05:40:00;;;;;;;;;;;3.90;72.30;;;;;;5005261;28;20046;-43
2020/12/10 05:42:39;;;;;;;;;;;4.00;72.50;;;;;;5005120;28;19926;-46
2020/12/10 05:45:16;;;;;;;;;;;4.00;72.80;;;;;;5007581;28;19932;-45
2020/12/10 05:47:49;;;;;;;;;;;4.00;72.90;;;;;;5005767;28;19940;-44
2020/12/10 05:50:17;;;;;;;;;;;4.00;72.90;;;;;;5007885;28;19929;-44
2020/12/10 05:52:52;;;;;;;;;;;4.00;73.00;;;;;;5007588;28;19936;-43
2020/12/10 05:55:19;;;;;;;;;;;4.00;73.00;;;;;;5013847;28;19940;-47
2020/12/10 05:57:45;;;;;;;;;;;4.00;72.80;;;;;;5006841;28;19939;-47
2020/12/10 06:00:12;;;;;;;;;;;4.00;72.70;;;;;;5005985;28;20335;-46
2020/12/10 06:02:40;;;;;;;;;;;4.00;73.00;;;;;;5008954;28;19929;-46
2020/12/10 06:05:06;;;;;;;;;;;4.00;73.10;;;;;;5007126;28;19925;-43
2020/12/10 06:07:32;;;;;;;;;;;4.00;73.20;;;;;;5006400;28;20284;-48
2020/12/10 06:09:59;;;;;;;;;;;4.00;73.10;;;;;;5007850;28;19929;-46
2020/12/10 06:12:25;;;;;;;;;;;4.00;73.10;;;;;;5009315;28;20026;-44
2020/12/10 06:14:52;;;;;;;;;;;4.00;73.10;;;;;;5008014;28;20672;-47
2020/12/10 06:17:18;;;;;;;;;;;4.00;72.90;;;;;;5007870;28;19976;-47
2020/12/10 06:19:44;;;;;;;;;;;4.00;72.90;;;;;;5021300;28;19933;-46
2020/12/10 06:22:22;;;;;;;;;;;4.00;73.10;;;;;;5008311;28;19932;-45
2020/12/10 06:24:48;;;;;;;;;;;4.00;73.10;;;;;;5008643;28;19925;-47
2020/12/10 06:27:22;;;;;;;;;;;4.00;72.80;;;;;;5006494;28;19929;-43
2020/12/10 06:29:48;;;;;;;;;;;4.00;72.50;;;;;;5006419;28;20019;-45
2020/12/10 06:32:18;;;;;;;;;;;4.00;72.50;;;;;;5006777;28;21039;-43
2020/12/10 06:34:53;;;;;;;;;;;4.00;72.50;;;;;;5006644;28;22651;-44
2020/12/10 06:37:24;;;;;;;;;;;4.00;72.80;;;;;;5007922;28;19929;-46
2020/12/10 06:39:51;;;;;;;;;;;4.00;73.10;;;;;;5007332;28;19933;-46
2020/12/10 06:42:18;;;;;;;;;;;4.00;73.20;;;;;;5007799;28;19932;-46
2020/12/10 06:44:44;;;;;;;;;;;4.10;73.20;;;;;;5005923;28;19940;-42
2020/12/10 06:47:11;;;;;;;;;;;4.00;72.90;;;;;;5008951;28;19933;-45
2020/12/10 06:49:38;;;;;;;;;;;4.00;72.90;;;;;;5003740;28;19926;-44
2020/12/10 06:52:08;;;;;;;;;;;4.00;72.60;;;;;;5007435;28;19933;-47
2020/12/10 06:54:34;;;;;;;;;;;4.00;72.50;;;;;;5008938;28;19956;-47
2020/12/10 06:57:05;;;;;;;;;;;4.00;72.40;;;;;;4991327;28;19925;-47
2020/12/10 06:59:39;;;;;;;;;;;4.00;72.50;;;;;;5001117;28;20292;-46
2020/12/10 07:02:13;;;;;;;;;;;4.00;72.80;;;;;;4996686;28;19944;-48
2020/12/10 07:04:50;;;;;;;;;;;4.00;73.00;;;;;;5001348;28;19929;-44
2020/12/10 07:07:21;;;;;;;;;;;4.00;73.20;;;;;;5005084;28;19932;-44
2020/12/10 07:09:59;;;;;;;;;;;4.00;73.40;;;;;;5007037;28;19940;-46
2020/12/10 07:12:25;;;;;;;;;;;4.00;73.50;;;;;;5008179;28;19925;-45
2020/12/10 07:15:08;;;;;;;;;;;4.00;73.50;;;;;;5008112;28;19932;-47
2020/12/10 07:17:34;;;;;;;;;;;4.00;73.40;;;;;;5004912;28;19929;-46
2020/12/10 07:20:01;;;;;;;;;;;4.00;73.30;;;;;;5004396;28;19972;-45
2020/12/10 07:22:29;;;;;;;;;;;4.00;73.10;;;;;;5006335;28;19935;-45
2020/12/10 07:24:55;;;;;;;;;;;4.00;72.80;;;;;;5004540;28;19941;-46
2020/12/10 07:27:25;;;;;;;;;;;4.00;72.60;;;;;;5006547;28;19948;-47
2020/12/10 07:29:51;;;;;;;;;;;4.00;72.40;;;;;;5008309;28;20018;-47
2020/12/10 07:32:18;;;;;;;;;;;4.00;72.60;;;;;;5006233;28;19929;-43
2020/12/10 07:34:45;;;;;;;;;;;4.00;72.70;;;;;;5006654;28;19929;-46
2020/12/10 07:37:12;;;;;;;;;;;4.00;72.60;;;;;;5005024;28;19932;-47
2020/12/10 07:39:38;;;;;;;;;;;4.00;72.40;;;;;;5005588;28;20028;-47
2020/12/10 07:42:05;;;;;;;;;;;4.00;71.80;;;;;;5005497;28;19925;-47
2020/12/10 07:44:32;;;;;;;;;;;4.00;71.10;;;;;;5003734;28;20020;-46
2020/12/10 07:46:59;;;;;;;;;;;4.00;70.90;;;;;;5008526;28;19931;-44
2020/12/10 07:49:30;;;;;;;;;;;4.00;71.20;;;;;;5007778;28;19940;-45
2020/12/10 07:52:00;;;;;;;;;;;4.10;71.20;;;;;;5006864;28;19925;-44
2020/12/10 07:54:28;;;;;;;;;;;4.10;71.30;;;;;;5003271;28;19936;-44
2020/12/10 07:56:55;;;;;;;;;;;4.00;71.90;;;;;;5005472;28;19936;-42
2020/12/10 07:59:23;;;;;;;;;;;4.10;71.90;;;;;;5003147;28;19929;-44
2020/12/10 08:01:52;;;;;;;;;;;4.10;72.10;;;;;;5004555;28;19929;-45
2020/12/10 08:04:20;;;;;;;;;;;4.10;72.20;;;;;;5004358;28;20510;-45
2020/12/10 08:06:48;;;;;;;;;;;4.10;72.20;;;;;;5005681;28;19926;-44
2020/12/10 08:09:14;;;;;;;;;;;4.10;72.10;;;;;;5003189;28;20015;-44
2020/12/10 08:11:51;;;;;;;;;;;4.10;71.90;;;;;;5004590;28;20434;-45
2020/12/10 08:14:24;;;;;;;;;;;4.10;71.60;;;;;;5010168;28;20436;-46
2020/12/10 08:16:51;;;;;;;;;;;4.10;71.30;;;;;;4997623;28;19932;-43
2020/12/10 08:19:29;;;;;;;;;;;4.10;71.20;;;;;;4997969;28;19937;-46
2020/12/10 08:21:56;;;;;;;;;;;4.10;71.40;;;;;;5007785;28;20388;-44
2020/12/10 08:24:35;;;;;;;;;;;4.10;71.30;;;;;;4997485;28;20292;-47
2020/12/10 08:27:01;;;;;;;;;;;4.10;71.30;;;;;;5003380;28;19935;-45
2020/12/10 08:29:27;;;;;;;;;;;4.20;70.80;;;;;;5008319;28;20630;-46
2020/12/10 08:32:04;;;;;;;;;;;4.20;70.70;;;;;;5009680;28;19929;-44
2020/12/10 08:34:30;;;;;;;;;;;4.10;70.70;;;;;;5008900;28;19948;-46
2020/12/10 08:37:07;;;;;;;;;;;4.20;70.70;;;;;;5005776;28;20304;-45
2020/12/10 08:39:34;;;;;;;;;;;4.10;70.60;;;;;;5006701;28;20183;-45
2020/12/10 08:42:01;;;;;;;;;;;4.10;70.80;;;;;;5006275;28;19940;-43
2020/12/10 08:44:42;;;;;;;;;;;4.10;70.90;;;;;;5006130;28;19939;-46
2020/12/10 08:47:24;;;;;;;;;;;4.10;71.10;;;;;;5005846;28;19936;-44
2020/12/10 08:50:21;;;;;;;;;;;4.10;70.90;;;;;;5010033;28;19936;-43
2020/12/10 08:52:49;;;;;;;;;;;4.10;71.00;;;;;;5007721;28;20695;-45
2020/12/10 08:55:15;;;;;;;;;;;4.10;71.00;;;;;;5004657;28;19936;-44
2020/12/10 08:57:48;;;;;;;;;;;4.10;71.10;;;;;;5007720;28;19929;-48
2020/12/10 09:00:14;;;;;;;;;;;4.10;71.10;;;;;;5008968;28;22206;-45
2020/12/10 09:02:41;;;;;;;;;;;4.10;71.20;;;;;;5005446;28;20009;-44
2020/12/10 09:05:07;;;;;;;;;;;4.10;71.00;;;;;;5007233;28;19925;-45
2020/12/10 09:07:34;;;;;;;;;;;4.10;71.00;;;;;;5010084;28;19930;-45
2020/12/10 09:10:04;;;;;;;;;;;4.10;71.00;;;;;;5010015;28;19976;-45
2020/12/10 09:12:33;;;;;;;;;;;4.10;70.80;;;;;;5008073;28;19948;-46
2020/12/10 09:14:59;;;;;;;;;;;4.10;70.50;;;;;;5003743;28;20336;-47
2020/12/10 09:17:29;;;;;;;;;;;4.10;70.40;;;;;;5010181;28;19925;-47
2020/12/10 09:19:57;;;;;;;;;;;4.10;70.30;;;;;;5007992;28;19929;-44
2020/12/10 09:22:23;;;;;;;;;;;4.10;70.30;;;;;;5006447;28;20381;-44
2020/12/10 09:24:49;;;;;;;;;;;4.10;70.50;;;;;;5006074;28;19940;-43
2020/12/10 09:27:20;;;;;;;;;;;4.20;70.20;;;;;;5006158;28;19936;-45
2020/12/10 09:29:48;;;;;;;;;;;4.20;70.00;;;;;;5008333;28;19926;-45
2020/12/10 09:32:14;;;;;;;;;;;4.20;69.90;;;;;;5005865;28;20963;-45
2020/12/10 09:34:42;;;;;;;;;;;4.20;70.00;;;;;;5008175;28;19930;-45
2020/12/10 09:37:08;;;;;;;;;;;4.20;70.40;;;;;;5002923;28;20113;-45
2020/12/10 09:39:35;;;;;;;;;;;4.20;70.20;;;;;;5004520;28;19925;-47
2020/12/10 09:42:05;;;;;;;;;;;4.20;69.90;;;;;;5006109;28;20402;-46
2020/12/10 09:44:31;;;;;;;;;;;4.20;69.70;;;;;;5002364;28;19934;-45
2020/12/10 09:46:58;;;;;;;;;;;4.20;69.50;;;;;;5005072;28;19936;-45
2020/12/10 09:49:27;;;;;;;;;;;4.20;69.30;;;;;;5007535;28;19930;-47
2020/12/10 09:51:58;;;;;;;;;;;4.20;69.20;;;;;;5007002;28;20376;-44
2020/12/10 09:54:39;;;;;;;;;;;4.20;69.00;;;;;;5007977;28;19925;-47
2020/12/10 09:57:47;;;;;;;;;;;4.10;69.30;;;;;;5008504;28;19933;-45
2020/12/10 09:59:55;;;;;;;;;;;4.00;69.40;;;;;;5003059;28;19999;-44
2020/12/10 10:02:21;;;;;;;;;;;4.00;69.70;;;;;;5007459;28;19951;-44
2020/12/10 10:04:48;;;;;;;;;;;4.00;69.90;;;;;;5005921;28;19929;-45
2020/12/10 10:07:14;;;;;;;;;;;4.00;69.80;;;;;;5014057;28;20004;-44
2020/12/10 10:09:41;;;;;;;;;;;4.10;69.80;;;;;;5005953;28;20436;-44
2020/12/10 10:12:08;;;;;;;;;;;4.10;69.30;;;;;;5006280;28;19933;-45
2020/12/10 10:14:36;;;;;;;;;;;4.10;68.90;;;;;;5005023;28;19932;-44
2020/12/10 10:17:06;;;;;;;;;;;4.10;68.90;;;;;;5019632;28;19925;-46
2020/12/10 10:19:33;;;;;;;;;;;4.20;68.90;;;;;;5007629;28;19925;-46
2020/12/10 10:21:59;;;;;;;;;;;4.20;69.40;;;;;;5007604;28;19925;-45
2020/12/10 10:24:26;;;;;;;;;;;4.20;69.30;;;;;;5006307;28;19925;-46
2020/12/10 10:26:54;;;;;;;;;;;4.20;69.30;;;;;;5005599;28;19929;-45
2020/12/10 10:29:20;;;;;;;;;;;4.20;69.20;;;;;;5007496;28;19933;-46
2020/12/10 10:31:50;;;;;;;;;;;4.20;69.20;;;;;;5008634;28;19935;-47
2020/12/10 10:34:18;;;;;;;;;;;4.20;69.00;;;;;;5007520;28;19991;-45
2020/12/10 10:36:44;;;;;;;;;;;4.20;68.70;;;;;;5004406;28;19925;-43
2020/12/10 10:39:13;;;;;;;;;;;4.30;68.40;;;;;;4999132;28;19956;-43
2020/12/10 10:41:43;;;;;;;;;;;4.30;68.10;;;;;;5006375;28;19929;-46
2020/12/10 10:44:09;;;;;;;;;;;4.30;68.00;;;;;;5004273;28;19932;-45
2020/12/10 10:46:36;;;;;;;;;;;4.30;68.10;;;;;;5006207;28;19929;-47
2020/12/10 10:49:03;;;;;;;;;;;4.30;68.30;;;;;;5005522;28;20385;-47
2020/12/10 10:51:29;;;;;;;;;;;4.30;68.00;;;;;;5009112;28;19933;-47
2020/12/10 10:53:55;;;;;;;;;;;4.30;68.10;;;;;;5004907;28;19929;-46
2020/12/10 10:56:22;;;;;;;;;;;4.30;67.90;;;;;;5004025;28;19925;-46
2020/12/10 10:58:49;;;;;;;;;;;4.30;68.00;;;;;;5005644;28;19956;-45
2020/12/10 11:01:15;;;;;;;;;;;4.30;67.70;;;;;;4997801;28;19933;-46
2020/12/10 11:03:42;;;;;;;;;;;4.30;67.50;;;;;;5022700;28;19929;-46
2020/12/10 11:06:08;;;;;;;;;;;4.30;67.60;;;;;;5010735;28;19979;-46
2020/12/10 11:08:35;;;;;;;;;;;4.30;67.70;;;;;;5006109;28;19939;-45
2020/12/10 11:11:04;;;;;;;;;;;4.30;67.60;;;;;;5010432;28;19929;-44
2020/12/10 11:13:30;;;;;;;;;;;4.30;67.80;;;;;;5008161;28;19933;-46
2020/12/10 11:15:56;;;;;;;;;;;4.30;68.30;;;;;;5003315;28;20381;-43
2020/12/10 11:18:22;;;;;;;;;;;4.30;68.40;;;;;;5007858;28;19940;-46
2020/12/10 11:20:49;;;;;;;;;;;4.30;68.20;;;;;;5009568;28;20301;-46
2020/12/10 11:23:15;;;;;;;;;;;4.30;68.50;;;;;;5010309;28;20452;-45
2020/12/10 11:25:41;;;;;;;;;;;4.30;68.60;;;;;;5012983;28;19932;-46
2020/12/10 11:28:07;;;;;;;;;;;4.30;68.70;;;;;;5007209;28;20373;-46
2020/12/10 11:30:33;;;;;;;;;;;4.30;68.60;;;;;;5008317;28;19937;-43
2020/12/10 11:33:00;;;;;;;;;;;4.30;68.70;;;;;;5011421;28;20319;-45
2020/12/10 11:35:26;;;;;;;;;;;4.30;68.20;;;;;;5008066;28;19934;-43
2020/12/10 11:37:55;;;;;;;;;;;4.20;68.00;;;;;;5003869;28;20065;-46
2020/12/10 11:40:22;;;;;;;;;;;4.20;68.10;;;;;;5020883;28;19929;-46
2020/12/10 11:42:49;;;;;;;;;;;4.20;68.20;;;;;;5006107;28;19968;-46
2020/12/10 11:45:16;;;;;;;;;;;4.20;68.10;;;;;;5006695;28;20380;-43
2020/12/10 11:47:42;;;;;;;;;;;4.20;68.40;;;;;;5003307;28;19930;-44
2020/12/10 11:50:08;;;;;;;;;;;4.10;68.30;;;;;;5007815;28;20627;-45
2020/12/10 11:52:34;;;;;;;;;;;4.10;68.30;;;;;;5005411;28;19925;-46
2020/12/10 11:55:01;;;;;;;;;;;4.10;68.10;;;;;;5007112;28;19929;-46
2020/12/10 11:57:29;;;;;;;;;;;4.10;67.80;;;;;;5002908;28;19940;-43
2020/12/10 11:59:55;;;;;;;;;;;4.00;68.00;;;;;;5005828;28;20376;-45
2020/12/10 12:02:21;;;;;;;;;;;4.00;68.20;;;;;;5007014;28;19933;-46
2020/12/10 12:04:48;;;;;;;;;;;4.00;67.80;;;;;;4994771;28;20412;-46
2020/12/10 12:07:15;;;;;;;;;;;4.00;68.00;;;;;;5006805;28;20527;-43
2020/12/10 12:09:41;;;;;;;;;;;4.10;68.40;;;;;;5007943;28;20250;-45
2020/12/10 12:12:07;;;;;;;;;;;4.10;68.60;;;;;;5006135;28;22202;-46
2020/12/10 12:14:34;;;;;;;;;;;4.20;68.80;;;;;;5001206;28;20974;-45
2020/12/10 12:17:02;;;;;;;;;;;4.20;69.20;;;;;;5009734;28;19972;-44
2020/12/10 12:19:28;;;;;;;;;;;4.20;69.40;;;;;;5006288;28;19956;-44
2020/12/10 12:21:58;;;;;;;;;;;4.20;69.30;;;;;;5008094;28;19932;-47
2020/12/10 12:24:24;;;;;;;;;;;4.20;69.20;;;;;;5007140;28;19933;-46
2020/12/10 12:26:52;;;;;;;;;;;4.10;68.00;;;;;;5009840;28;19929;-43
2020/12/10 12:29:18;;;;;;;;;;;4.10;68.30;;;;;;5007084;28;19925;-46
2020/12/10 12:31:44;;;;;;;;;;;4.00;68.70;;;;;;5007376;28;19988;-44
2020/12/10 12:34:10;;;;;;;;;;;4.00;68.90;;;;;;5004432;28;19933;-47
2020/12/10 12:36:36;;;;;;;;;;;4.00;68.80;;;;;;5022734;28;20533;-46
2020/12/10 12:39:04;;;;;;;;;;;4.10;68.40;;;;;;5005823;28;19925;-47
2020/12/10 12:41:31;;;;;;;;;;;4.10;68.20;;;;;;5006766;28;20504;-45
2020/12/10 12:43:58;;;;;;;;;;;4.10;68.10;;;;;;5003894;28;20014;-45
2020/12/10 12:46:25;;;;;;;;;;;4.20;68.00;;;;;;5006097;28;19936;-43
2020/12/10 12:48:52;;;;;;;;;;;4.20;68.10;;;;;;5008274;28;19926;-43
2020/12/10 12:51:19;;;;;;;;;;;4.20;68.00;;;;;;5004070;28;19948;-46
2020/12/10 12:53:45;;;;;;;;;;;4.20;68.00;;;;;;5002332;28;19925;-45
2020/12/10 12:56:13;;;;;;;;;;;4.20;68.50;;;;;;5007384;28;20408;-44
2020/12/10 12:58:39;;;;;;;;;;;4.20;68.20;;;;;;5007254;28;19931;-46
2020/12/10 13:01:05;;;;;;;;;;;4.20;68.40;;;;;;5006760;28;19944;-45
2020/12/10 13:03:31;;;;;;;;;;;4.20;67.50;;;;;;5004871;28;19964;-46
2020/12/10 13:05:57;;;;;;;;;;;4.20;67.50;;;;;;5010723;28;20384;-46
2020/12/10 13:08:23;;;;;;;;;;;4.20;67.60;;;;;;5006050;28;19941;-46
2020/12/10 13:10:50;;;;;;;;;;;4.20;68.00;;;;;;5006555;28;20019;-46
2020/12/10 13:13:16;;;;;;;;;;;4.20;67.90;;;;;;5007764;28;20352;-47
2020/12/10 13:15:43;;;;;;;;;;;4.10;67.90;;;;;;5007858;28;20039;-45
2020/12/10 13:18:12;;;;;;;;;;;4.20;67.70;;;;;;5008635;28;20012;-45
2020/12/10 13:20:42;;;;;;;;;;;4.20;67.50;;;;;;5007781;28;20019;-46
2020/12/10 13:23:08;;;;;;;;;;;4.20;67.90;;;;;;5007946;28;19932;-44
2020/12/10 13:25:34;;;;;;;;;;;4.20;67.90;;;;;;5003398;28;19932;-45
2020/12/10 13:28:00;;;;;;;;;;;4.20;67.80;;;;;;5014488;28;19936;-45
2020/12/10 13:30:27;;;;;;;;;;;4.30;67.80;;;;;;5006061;28;19929;-46
2020/12/10 13:32:54;;;;;;;;;;;4.30;67.90;;;;;;5008754;28;19929;-47
2020/12/10 13:35:20;;;;;;;;;;;4.20;68.10;;;;;;5008547;28;19929;-46
2020/12/10 13:37:46;;;;;;;;;;;4.20;67.90;;;;;;5007562;28;19929;-45
2020/12/10 13:40:12;;;;;;;;;;;4.20;67.80;;;;;;5005974;28;20886;-43
2020/12/10 13:42:38;;;;;;;;;;;4.20;68.10;;;;;;5006054;28;19941;-48
2020/12/10 13:45:05;;;;;;;;;;;4.20;68.40;;;;;;5007564;28;19925;-45
2020/12/10 13:47:35;;;;;;;;;;;4.20;68.20;;;;;;5003859;28;20407;-44
2020/12/10 13:50:02;;;;;;;;;;;4.10;68.40;;;;;;5006993;28;19926;-47
2020/12/10 13:52:28;;;;;;;;;;;4.00;68.30;;;;;;5019900;28;19935;-45
2020/12/10 13:54:55;;;;;;;;;;;3.90;68.50;;;;;;5012677;28;19944;-45
2020/12/10 13:57:21;;;;;;;;;;;3.70;68.60;;;;;;5005145;28;20233;-44
2020/12/10 13:59:48;;;;;;;;;;;3.50;68.90;;;;;;4983759;28;20027;-47
2020/12/10 14:02:16;;;;;;;;;;;3.60;69.30;;;;;;4970448;28;20328;-46
2020/12/10 14:04:42;;;;;;;;;;;3.60;69.00;;;;;;4987831;28;19937;-47
2020/12/10 14:07:08;;;;;;;;;;;3.60;69.70;;;;;;5019075;28;20008;-46
2020/12/10 14:09:35;;;;;;;;;;;3.70;69.80;;;;;;5006878;28;19925;-43
2020/12/10 14:12:01;;;;;;;;;;;3.80;69.80;;;;;;5020484;28;19941;-46
2020/12/10 14:14:28;;;;;;;;;;;3.80;69.70;;;;;;5000615;28;20869;-47
2020/12/10 14:16:55;;;;;;;;;;;3.80;69.50;;;;;;5005179;28;20384;-45
2020/12/10 14:19:24;;;;;;;;;;;3.90;69.50;;;;;;5004090;28;19948;-46
2020/12/10 14:21:54;;;;;;;;;;;3.90;69.40;;;;;;5003583;28;19967;-45
2020/12/10 14:24:20;;;;;;;;;;;3.80;69.30;;;;;;5006583;28;19933;-47
2020/12/10 14:26:50;;;;;;;;;;;3.70;69.00;;;;;;5005838;28;20029;-44
2020/12/10 14:29:18;;;;;;;;;;;3.70;69.30;;;;;;5007141;28;19940;-44
2020/12/10 14:31:44;;;;;;;;;;;3.80;69.30;;;;;;5006081;28;19930;-45
2020/12/10 14:34:11;;;;;;;;;;;3.80;69.50;;;;;;5007019;28;19933;-46